sensor_id;sensor_type;location;lat;lon;timestamp;temperature;humidity
13976;DHT22;7062;49.792;9.946;2022-11-20T00:00:55;4.30;99.90
13976;DHT22;7062;49.792;9.946;2022-11-20T00:03:21;4.20;99.90
13976;DHT22;7062;49.792;9.946;2022-11-20T00:05:47;4.20;99.90
13976;DHT22;7062;49.792;9.946;2022-11-20T00:08:13;4.20;99.90
13976;DHT22;7062;49.792;9.946;2022-11-20T00:10:39;4.10;99.90
13976;DHT22;7062;49.792;9.946;2022-11-20T00:13:06;4.20;99.90
13976;DHT22;7062;49.792;9.946;2022-11-20T00:15:31;4.00;99.90
13976;DHT22;7062;49.792;9.946;2022-11-20T00:17:57;4.00;99.90
13976;DHT22;7062;49.792;9.946;2022-11-20T00:20:23;4.10;99.90
13976;DHT22;7062;49.792;9.946;2022-11-20T00:22:49;4.10;99.90
13976;DHT22;7062;49.792;9.946;2022-11-20T00:25:15;4.00;99.90
13976;DHT22;7062;49.792;9.946;2022-11-20T00:27:41;3.90;99.90
13976;DHT22;7062;49.792;9.946;2022-11-20T00:30:07;3.80;99.90
13976;DHT22;7062;49.792;9.946;2022-11-20T00:32:33;3.70;99.90
13976;DHT22;7062;49.792;9.946;2022-11-20T00:34:59;3.60;99.90
13976;DHT22;7062;49.792;9.946;2022-11-20T00:37:24;3.70;99.90
13976;DHT22;7062;49.792;9.946;2022-11-20T00:39:50;3.60;99.90
13976;DHT22;7062;49.792;9.946;2022-11-20T00:42:16;3.70;99.90
13976;DHT22;7062;49.792;9.946;2022-11-20T00:44:41;3.70;99.90
13976;DHT22;7062;49.792;9.946;2022-11-20T00:47:07;3.80;99.90
13976;DHT22;7062;49.792;9.946;2022-11-20T00:49:32;3.70;99.90
13976;DHT22;7062;49.792;9.946;2022-11-20T00:51:58;3.80;99.90
13976;DHT22;7062;49.792;9.946;2022-11-20T00:54:24;3.60;99.90
13976;DHT22;7062;49.792;9.946;2022-11-20T00:56:49;3.90;99.90
13976;DHT22;7062;49.792;9.946;2022-11-20T00:59:15;3.80;99.90
13976;DHT22;7062;49.792;9.946;2022-11-20T01:01:40;3.80;99.90
13976;DHT22;7062;49.792;9.946;2022-11-20T01:04:06;3.90;99.90
13976;DHT22;7062;49.792;9.946;2022-11-20T01:06:34;4.00;99.90
13976;DHT22;7062;49.792;9.946;2022-11-20T01:09:06;4.10;99.90
13976;DHT22;7062;49.792;9.946;2022-11-20T01:11:36;4.10;99.90
13976;DHT22;7062;49.792;9.946;2022-11-20T01:14:03;4.10;99.90
13976;DHT22;7062;49.792;9.946;2022-11-20T01:16:32;4.00;99.90
13976;DHT22;7062;49.792;9.946;2022-11-20T01:19:00;4.10;99.90
13976;DHT22;7062;49.792;9.946;2022-11-20T01:21:34;4.10;99.90
13976;DHT22;7062;49.792;9.946;2022-11-20T01:24:00;4.10;99.90
13976;DHT22;7062;49.792;9.946;2022-11-20T01:26:31;4.10;99.90
13976;DHT22;7062;49.792;9.946;2022-11-20T01:28:58;4.10;99.90
13976;DHT22;7062;49.792;9.946;2022-11-20T01:33:55;4.10;99.90
13976;DHT22;7062;49.792;9.946;2022-11-20T01:36:23;4.00;99.90
13976;DHT22;7062;49.792;9.946;2022-11-20T01:38:54;4.00;99.90
13976;DHT22;7062;49.792;9.946;2022-11-20T01:41:20;4.00;99.90
13976;DHT22;7062;49.792;9.946;2022-11-20T01:44:04;4.00;99.90
13976;DHT22;7062;49.792;9.946;2022-11-20T01:46:36;4.10;99.90
13976;DHT22;7062;49.792;9.946;2022-11-20T01:49:08;4.00;99.90
13976;DHT22;7062;49.792;9.946;2022-11-20T01:51:49;4.10;99.90
13976;DHT22;7062;49.792;9.946;2022-11-20T01:54:30;4.00;99.90
13976;DHT22;7062;49.792;9.946;2022-11-20T01:56:59;4.10;99.90
13976;DHT22;7062;49.792;9.946;2022-11-20T01:59:26;4.10;99.90
13976;DHT22;7062;49.792;9.946;2022-11-20T02:01:53;4.10;99.90
13976;DHT22;7062;49.792;9.946;2022-11-20T02:04:20;4.10;99.90
13976;DHT22;7062;49.792;9.946;2022-11-20T02:06:53;4.10;99.90
13976;DHT22;7062;49.792;9.946;2022-11-20T02:09:21;4.00;99.90
13976;DHT22;7062;49.792;9.946;2022-11-20T02:11:47;4.10;99.90
13976;DHT22;7062;49.792;9.946;2022-11-20T02:14:14;4.10;99.90
13976;DHT22;7062;49.792;9.946;2022-11-20T02:16:44;4.10;99.90
13976;DHT22;7062;49.792;9.946;2022-11-20T02:19:24;3.90;99.90
13976;DHT22;7062;49.792;9.946;2022-11-20T02:21:55;4.00;99.90
13976;DHT22;7062;49.792;9.946;2022-11-20T02:24:22;4.00;99.90
13976;DHT22;7062;49.792;9.946;2022-11-20T02:26:57;4.00;99.90
13976;DHT22;7062;49.792;9.946;2022-11-20T02:29:39;4.00;99.90
13976;DHT22;7062;49.792;9.946;2022-11-20T02:32:05;4.00;99.90
13976;DHT22;7062;49.792;9.946;2022-11-20T02:34:31;4.00;99.90
13976;DHT22;7062;49.792;9.946;2022-11-20T02:36:57;3.70;99.90
13976;DHT22;7062;49.792;9.946;2022-11-20T02:39:25;3.80;99.90
13976;DHT22;7062;49.792;9.946;2022-11-20T02:41:53;3.90;99.90
13976;DHT22;7062;49.792;9.946;2022-11-20T02:44:19;3.60;99.90
13976;DHT22;7062;49.792;9.946;2022-11-20T02:46:45;3.80;99.90
13976;DHT22;7062;49.792;9.946;2022-11-20T02:49:11;3.50;99.90
13976;DHT22;7062;49.792;9.946;2022-11-20T02:51:37;3.50;99.90
13976;DHT22;7062;49.792;9.946;2022-11-20T02:54:04;3.40;99.90
13976;DHT22;7062;49.792;9.946;2022-11-20T02:56:30;3.60;99.90
13976;DHT22;7062;49.792;9.946;2022-11-20T02:58:56;3.70;99.90
13976;DHT22;7062;49.792;9.946;2022-11-20T03:01:22;3.70;99.90
13976;DHT22;7062;49.792;9.946;2022-11-20T03:03:47;3.80;99.90
13976;DHT22;7062;49.792;9.946;2022-11-20T03:06:15;3.80;99.90
13976;DHT22;7062;49.792;9.946;2022-11-20T03:08:41;3.80;99.90
13976;DHT22;7062;49.792;9.946;2022-11-20T03:11:07;3.90;99.90
13976;DHT22;7062;49.792;9.946;2022-11-20T03:13:33;3.90;99.90
13976;DHT22;7062;49.792;9.946;2022-11-20T03:16:08;4.00;99.90
13976;DHT22;7062;49.792;9.946;2022-11-20T03:18:34;3.80;99.90
13976;DHT22;7062;49.792;9.946;2022-11-20T03:21:00;3.70;99.90
13976;DHT22;7062;49.792;9.946;2022-11-20T03:23:25;3.80;99.90
13976;DHT22;7062;49.792;9.946;2022-11-20T03:25:51;3.90;99.90
13976;DHT22;7062;49.792;9.946;2022-11-20T03:28:17;3.90;99.90
13976;DHT22;7062;49.792;9.946;2022-11-20T03:30:42;3.80;99.90
13976;DHT22;7062;49.792;9.946;2022-11-20T03:33:08;3.70;99.90
13976;DHT22;7062;49.792;9.946;2022-11-20T03:35:33;3.70;99.90
13976;DHT22;7062;49.792;9.946;2022-11-20T03:37:59;3.70;99.90
13976;DHT22;7062;49.792;9.946;2022-11-20T03:40:24;3.70;99.90
13976;DHT22;7062;49.792;9.946;2022-11-20T03:42:50;3.80;99.90
13976;DHT22;7062;49.792;9.946;2022-11-20T03:45:17;3.70;99.90
13976;DHT22;7062;49.792;9.946;2022-11-20T03:47:43;3.80;99.90
13976;DHT22;7062;49.792;9.946;2022-11-20T03:50:10;3.80;99.90
13976;DHT22;7062;49.792;9.946;2022-11-20T03:52:37;3.80;99.90
13976;DHT22;7062;49.792;9.946;2022-11-20T03:55:04;3.90;99.90
13976;DHT22;7062;49.792;9.946;2022-11-20T03:57:29;3.80;99.90
13976;DHT22;7062;49.792;9.946;2022-11-20T03:59:55;3.90;99.90
13976;DHT22;7062;49.792;9.946;2022-11-20T04:02:21;3.90;99.90
13976;DHT22;7062;49.792;9.946;2022-11-20T04:04:46;3.90;99.90
13976;DHT22;7062;49.792;9.946;2022-11-20T04:07:12;4.00;99.90
13976;DHT22;7062;49.792;9.946;2022-11-20T04:09:37;3.90;99.90
13976;DHT22;7062;49.792;9.946;2022-11-20T04:12:03;3.90;99.90
13976;DHT22;7062;49.792;9.946;2022-11-20T04:14:29;3.80;99.90
13976;DHT22;7062;49.792;9.946;2022-11-20T04:16:55;3.90;99.90
13976;DHT22;7062;49.792;9.946;2022-11-20T04:19:20;3.80;99.90
13976;DHT22;7062;49.792;9.946;2022-11-20T04:21:46;3.80;99.90
13976;DHT22;7062;49.792;9.946;2022-11-20T04:24:11;3.80;99.90
13976;DHT22;7062;49.792;9.946;2022-11-20T04:26:37;3.90;99.90
13976;DHT22;7062;49.792;9.946;2022-11-20T04:29:03;3.90;99.90
13976;DHT22;7062;49.792;9.946;2022-11-20T04:31:33;3.80;99.90
13976;DHT22;7062;49.792;9.946;2022-11-20T04:34:01;3.80;99.90
13976;DHT22;7062;49.792;9.946;2022-11-20T04:36:29;3.80;99.90
13976;DHT22;7062;49.792;9.946;2022-11-20T04:39:06;3.70;99.90
13976;DHT22;7062;49.792;9.946;2022-11-20T04:41:35;3.90;99.90
13976;DHT22;7062;49.792;9.946;2022-11-20T04:44:03;3.80;99.90
13976;DHT22;7062;49.792;9.946;2022-11-20T04:46:31;3.90;99.90
13976;DHT22;7062;49.792;9.946;2022-11-20T04:48:57;3.90;99.90
13976;DHT22;7062;49.792;9.946;2022-11-20T04:51:23;3.70;99.90
13976;DHT22;7062;49.792;9.946;2022-11-20T04:53:48;3.50;99.90
13976;DHT22;7062;49.792;9.946;2022-11-20T04:56:14;3.60;99.90
13976;DHT22;7062;49.792;9.946;2022-11-20T04:58:40;3.70;99.90
13976;DHT22;7062;49.792;9.946;2022-11-20T05:01:09;3.60;99.90
13976;DHT22;7062;49.792;9.946;2022-11-20T05:03:35;3.70;99.90
13976;DHT22;7062;49.792;9.946;2022-11-20T05:06:02;3.70;99.90
13976;DHT22;7062;49.792;9.946;2022-11-20T05:08:29;3.80;99.90
13976;DHT22;7062;49.792;9.946;2022-11-20T05:11:03;3.90;99.90
13976;DHT22;7062;49.792;9.946;2022-11-20T05:13:29;3.90;99.90
13976;DHT22;7062;49.792;9.946;2022-11-20T05:15:54;3.80;99.90
13976;DHT22;7062;49.792;9.946;2022-11-20T05:18:20;3.80;99.90
13976;DHT22;7062;49.792;9.946;2022-11-20T05:20:46;3.80;99.90
13976;DHT22;7062;49.792;9.946;2022-11-20T05:23:11;3.90;99.90
13976;DHT22;7062;49.792;9.946;2022-11-20T05:25:37;4.00;99.90
13976;DHT22;7062;49.792;9.946;2022-11-20T05:28:03;4.00;99.90
13976;DHT22;7062;49.792;9.946;2022-11-20T05:30:28;4.00;99.90
13976;DHT22;7062;49.792;9.946;2022-11-20T05:32:54;4.00;99.90
13976;DHT22;7062;49.792;9.946;2022-11-20T05:35:20;3.90;99.90
13976;DHT22;7062;49.792;9.946;2022-11-20T05:37:45;4.00;99.90
13976;DHT22;7062;49.792;9.946;2022-11-20T05:40:11;4.00;99.90
13976;DHT22;7062;49.792;9.946;2022-11-20T05:42:37;4.00;99.90
13976;DHT22;7062;49.792;9.946;2022-11-20T05:45:04;4.00;99.90
13976;DHT22;7062;49.792;9.946;2022-11-20T05:47:33;4.00;99.90
13976;DHT22;7062;49.792;9.946;2022-11-20T05:49:59;3.90;99.90
13976;DHT22;7062;49.792;9.946;2022-11-20T05:52:28;4.00;99.90
13976;DHT22;7062;49.792;9.946;2022-11-20T05:54:54;4.00;99.90
13976;DHT22;7062;49.792;9.946;2022-11-20T05:57:20;4.10;99.90
13976;DHT22;7062;49.792;9.946;2022-11-20T05:59:45;4.10;99.90
13976;DHT22;7062;49.792;9.946;2022-11-20T06:02:11;4.00;99.90
13976;DHT22;7062;49.792;9.946;2022-11-20T06:04:37;4.10;99.90
13976;DHT22;7062;49.792;9.946;2022-11-20T06:07:04;4.20;99.90
13976;DHT22;7062;49.792;9.946;2022-11-20T06:09:29;4.00;99.90
13976;DHT22;7062;49.792;9.946;2022-11-20T06:11:55;4.00;99.90
13976;DHT22;7062;49.792;9.946;2022-11-20T06:14:21;4.00;99.90
13976;DHT22;7062;49.792;9.946;2022-11-20T06:16:46;4.00;99.90
13976;DHT22;7062;49.792;9.946;2022-11-20T06:19:12;3.90;99.90
13976;DHT22;7062;49.792;9.946;2022-11-20T06:21:40;3.90;99.90
13976;DHT22;7062;49.792;9.946;2022-11-20T06:24:06;3.90;99.90
13976;DHT22;7062;49.792;9.946;2022-11-20T06:26:32;4.00;99.90
13976;DHT22;7062;49.792;9.946;2022-11-20T06:28:57;4.00;99.90
13976;DHT22;7062;49.792;9.946;2022-11-20T06:31:25;4.00;99.90
13976;DHT22;7062;49.792;9.946;2022-11-20T06:33:51;4.10;99.90
13976;DHT22;7062;49.792;9.946;2022-11-20T06:36:19;4.00;99.90
13976;DHT22;7062;49.792;9.946;2022-11-20T06:38:46;4.00;99.90
13976;DHT22;7062;49.792;9.946;2022-11-20T06:41:14;3.80;99.90
13976;DHT22;7062;49.792;9.946;2022-11-20T06:43:40;3.90;99.90
13976;DHT22;7062;49.792;9.946;2022-11-20T06:46:06;4.00;99.90
13976;DHT22;7062;49.792;9.946;2022-11-20T06:48:32;4.30;99.90
13976;DHT22;7062;49.792;9.946;2022-11-20T06:50:58;4.00;99.90
13976;DHT22;7062;49.792;9.946;2022-11-20T06:53:24;4.00;99.90
13976;DHT22;7062;49.792;9.946;2022-11-20T06:55:50;4.00;99.90
13976;DHT22;7062;49.792;9.946;2022-11-20T06:58:17;4.10;99.90
13976;DHT22;7062;49.792;9.946;2022-11-20T07:00:43;4.10;99.90
13976;DHT22;7062;49.792;9.946;2022-11-20T07:03:11;4.10;99.90
13976;DHT22;7062;49.792;9.946;2022-11-20T07:05:37;4.00;99.90
13976;DHT22;7062;49.792;9.946;2022-11-20T07:08:07;4.00;99.90
13976;DHT22;7062;49.792;9.946;2022-11-20T07:10:32;4.20;99.90
13976;DHT22;7062;49.792;9.946;2022-11-20T07:12:58;4.20;99.90
13976;DHT22;7062;49.792;9.946;2022-11-20T07:15:25;4.20;99.90
13976;DHT22;7062;49.792;9.946;2022-11-20T07:17:51;4.20;99.90
13976;DHT22;7062;49.792;9.946;2022-11-20T07:20:18;4.20;99.90
13976;DHT22;7062;49.792;9.946;2022-11-20T07:22:44;4.30;99.90
13976;DHT22;7062;49.792;9.946;2022-11-20T07:25:11;4.20;99.90
13976;DHT22;7062;49.792;9.946;2022-11-20T07:27:36;4.20;99.90
13976;DHT22;7062;49.792;9.946;2022-11-20T07:30:03;4.20;99.90
13976;DHT22;7062;49.792;9.946;2022-11-20T07:32:28;4.30;99.90
13976;DHT22;7062;49.792;9.946;2022-11-20T07:34:54;4.30;99.90
13976;DHT22;7062;49.792;9.946;2022-11-20T07:37:20;4.30;99.90
13976;DHT22;7062;49.792;9.946;2022-11-20T07:39:46;4.10;99.90
13976;DHT22;7062;49.792;9.946;2022-11-20T07:42:12;4.10;99.90
13976;DHT22;7062;49.792;9.946;2022-11-20T07:44:38;4.20;99.90
13976;DHT22;7062;49.792;9.946;2022-11-20T07:47:04;4.30;99.90
13976;DHT22;7062;49.792;9.946;2022-11-20T07:49:29;4.40;99.90
13976;DHT22;7062;49.792;9.946;2022-11-20T07:51:55;4.40;99.90
13976;DHT22;7062;49.792;9.946;2022-11-20T07:54:22;4.40;99.90
13976;DHT22;7062;49.792;9.946;2022-11-20T07:56:48;4.40;99.90
13976;DHT22;7062;49.792;9.946;2022-11-20T07:59:14;4.60;99.90
13976;DHT22;7062;49.792;9.946;2022-11-20T08:01:41;4.50;99.90
13976;DHT22;7062;49.792;9.946;2022-11-20T08:04:07;4.50;99.90
13976;DHT22;7062;49.792;9.946;2022-11-20T08:06:33;4.30;99.90
13976;DHT22;7062;49.792;9.946;2022-11-20T08:08:59;4.30;99.90
13976;DHT22;7062;49.792;9.946;2022-11-20T08:11:24;4.30;99.90
13976;DHT22;7062;49.792;9.946;2022-11-20T08:14:08;4.30;99.90
13976;DHT22;7062;49.792;9.946;2022-11-20T08:16:37;4.30;99.90
13976;DHT22;7062;49.792;9.946;2022-11-20T08:19:03;4.40;99.90
13976;DHT22;7062;49.792;9.946;2022-11-20T08:21:30;4.40;99.90
13976;DHT22;7062;49.792;9.946;2022-11-20T08:23:56;4.40;99.90
13976;DHT22;7062;49.792;9.946;2022-11-20T08:26:22;4.30;99.90
13976;DHT22;7062;49.792;9.946;2022-11-20T08:28:49;4.20;99.90
13976;DHT22;7062;49.792;9.946;2022-11-20T08:31:14;4.30;99.90
13976;DHT22;7062;49.792;9.946;2022-11-20T08:33:40;4.40;99.90
13976;DHT22;7062;49.792;9.946;2022-11-20T08:36:06;4.50;99.90
13976;DHT22;7062;49.792;9.946;2022-11-20T08:38:32;4.60;99.90
13976;DHT22;7062;49.792;9.946;2022-11-20T08:40:59;4.50;99.90
13976;DHT22;7062;49.792;9.946;2022-11-20T08:43:44;4.40;99.90
13976;DHT22;7062;49.792;9.946;2022-11-20T08:46:10;4.40;99.90
13976;DHT22;7062;49.792;9.946;2022-11-20T08:48:36;4.40;99.90
13976;DHT22;7062;49.792;9.946;2022-11-20T08:51:01;4.40;99.90
13976;DHT22;7062;49.792;9.946;2022-11-20T08:53:27;4.40;99.90
13976;DHT22;7062;49.792;9.946;2022-11-20T08:55:53;4.40;99.90
13976;DHT22;7062;49.792;9.946;2022-11-20T08:58:19;4.50;99.90
13976;DHT22;7062;49.792;9.946;2022-11-20T09:00:44;4.40;99.90
13976;DHT22;7062;49.792;9.946;2022-11-20T09:03:10;4.50;99.90
13976;DHT22;7062;49.792;9.946;2022-11-20T09:05:35;4.50;99.90
13976;DHT22;7062;49.792;9.946;2022-11-20T09:08:01;4.50;99.90
13976;DHT22;7062;49.792;9.946;2022-11-20T09:10:27;4.60;99.90
13976;DHT22;7062;49.792;9.946;2022-11-20T09:12:53;4.50;99.90
13976;DHT22;7062;49.792;9.946;2022-11-20T09:15:20;4.70;99.90
13976;DHT22;7062;49.792;9.946;2022-11-20T09:18:00;4.70;99.90
13976;DHT22;7062;49.792;9.946;2022-11-20T09:20:27;4.70;99.90
13976;DHT22;7062;49.792;9.946;2022-11-20T09:22:55;4.80;99.90
13976;DHT22;7062;49.792;9.946;2022-11-20T09:25:21;4.70;99.90
13976;DHT22;7062;49.792;9.946;2022-11-20T09:27:47;4.40;99.90
13976;DHT22;7062;49.792;9.946;2022-11-20T09:30:14;4.50;99.90
13976;DHT22;7062;49.792;9.946;2022-11-20T09:32:40;4.60;99.90
13976;DHT22;7062;49.792;9.946;2022-11-20T09:35:06;4.80;99.90
13976;DHT22;7062;49.792;9.946;2022-11-20T09:37:31;5.00;99.90
13976;DHT22;7062;49.792;9.946;2022-11-20T09:39:57;5.00;99.90
13976;DHT22;7062;49.792;9.946;2022-11-20T09:48:08;4.80;99.90
13976;DHT22;7062;49.792;9.946;2022-11-20T09:50:45;4.50;99.90
13976;DHT22;7062;49.792;9.946;2022-11-20T09:56:16;4.50;99.90
13976;DHT22;7062;49.792;9.946;2022-11-20T09:58:48;4.60;99.90
13976;DHT22;7062;49.792;9.946;2022-11-20T10:01:21;4.50;99.90
13976;DHT22;7062;49.792;9.946;2022-11-20T10:04:02;4.60;99.90
13976;DHT22;7062;49.792;9.946;2022-11-20T10:09:34;4.90;99.90
13976;DHT22;7062;49.792;9.946;2022-11-20T10:12:19;4.80;99.90
13976;DHT22;7062;49.792;9.946;2022-11-20T10:20:24;5.80;99.90
13976;DHT22;7062;49.792;9.946;2022-11-20T10:25:25;5.90;99.90
13976;DHT22;7062;49.792;9.946;2022-11-20T10:30:22;5.90;99.90
13976;DHT22;7062;49.792;9.946;2022-11-20T10:33:04;6.20;99.90
13976;DHT22;7062;49.792;9.946;2022-11-20T10:36:22;8.30;99.90
13976;DHT22;7062;49.792;9.946;2022-11-20T10:39:03;11.00;99.90
13976;DHT22;7062;49.792;9.946;2022-11-20T10:41:33;13.30;99.90
13976;DHT22;7062;49.792;9.946;2022-11-20T10:44:20;15.60;99.90
13976;DHT22;7062;49.792;9.946;2022-11-20T10:47:07;16.20;99.90
13976;DHT22;7062;49.792;9.946;2022-11-20T10:49:37;14.00;99.90
13976;DHT22;7062;49.792;9.946;2022-11-20T10:52:05;12.30;99.90
13976;DHT22;7062;49.792;9.946;2022-11-20T11:00:10;12.40;99.90
13976;DHT22;7062;49.792;9.946;2022-11-20T11:02:53;10.50;99.90
13976;DHT22;7062;49.792;9.946;2022-11-20T11:05:39;9.00;99.90
13976;DHT22;7062;49.792;9.946;2022-11-20T11:08:17;8.30;99.90
13976;DHT22;7062;49.792;9.946;2022-11-20T11:11:02;8.00;99.90
13976;DHT22;7062;49.792;9.946;2022-11-20T11:13:32;7.80;99.90
13976;DHT22;7062;49.792;9.946;2022-11-20T11:15:58;7.50;99.90
13976;DHT22;7062;49.792;9.946;2022-11-20T11:18:28;7.70;99.90
13976;DHT22;7062;49.792;9.946;2022-11-20T11:20:56;7.50;99.90
13976;DHT22;7062;49.792;9.946;2022-11-20T11:23:58;7.10;99.90
13976;DHT22;7062;49.792;9.946;2022-11-20T11:26:24;6.70;99.90
13976;DHT22;7062;49.792;9.946;2022-11-20T11:29:02;6.70;99.90
13976;DHT22;7062;49.792;9.946;2022-11-20T11:31:30;6.60;99.90
13976;DHT22;7062;49.792;9.946;2022-11-20T11:34:14;6.30;99.90
13976;DHT22;7062;49.792;9.946;2022-11-20T11:36:41;6.20;99.90
13976;DHT22;7062;49.792;9.946;2022-11-20T11:39:13;6.10;99.90
13976;DHT22;7062;49.792;9.946;2022-11-20T11:41:40;6.20;99.90
13976;DHT22;7062;49.792;9.946;2022-11-20T11:44:29;6.40;99.90
13976;DHT22;7062;49.792;9.946;2022-11-20T11:47:31;6.50;99.90
13976;DHT22;7062;49.792;9.946;2022-11-20T11:55:38;6.40;99.90
13976;DHT22;7062;49.792;9.946;2022-11-20T11:58:10;6.10;99.90
13976;DHT22;7062;49.792;9.946;2022-11-20T12:00:39;6.00;99.90
13976;DHT22;7062;49.792;9.946;2022-11-20T12:03:24;5.90;99.90
13976;DHT22;7062;49.792;9.946;2022-11-20T12:05:58;5.90;99.90
13976;DHT22;7062;49.792;9.946;2022-11-20T12:16:53;6.20;99.90
13976;DHT22;7062;49.792;9.946;2022-11-20T12:19:21;6.10;99.90
13976;DHT22;7062;49.792;9.946;2022-11-20T12:22:09;6.10;99.90
13976;DHT22;7062;49.792;9.946;2022-11-20T12:27:11;6.00;99.90
13976;DHT22;7062;49.792;9.946;2022-11-20T12:40:39;5.90;99.90
13976;DHT22;7062;49.792;9.946;2022-11-20T12:43:24;5.80;99.90
13976;DHT22;7062;49.792;9.946;2022-11-20T12:46:42;5.70;99.90
13976;DHT22;7062;49.792;9.946;2022-11-20T12:49:45;5.90;99.90
13976;DHT22;7062;49.792;9.946;2022-11-20T12:52:28;5.90;99.90
13976;DHT22;7062;49.792;9.946;2022-11-20T12:58:05;6.10;99.90
13976;DHT22;7062;49.792;9.946;2022-11-20T13:00:35;6.10;99.90
13976;DHT22;7062;49.792;9.946;2022-11-20T13:06:28;6.30;99.90
13976;DHT22;7062;49.792;9.946;2022-11-20T13:08:56;6.30;99.90
13976;DHT22;7062;49.792;9.946;2022-11-20T13:11:32;6.50;99.90
13976;DHT22;7062;49.792;9.946;2022-11-20T13:19:20;6.30;99.90
13976;DHT22;7062;49.792;9.946;2022-11-20T13:21:48;6.30;99.90
13976;DHT22;7062;49.792;9.946;2022-11-20T13:26:46;6.30;99.90
13976;DHT22;7062;49.792;9.946;2022-11-20T13:29:17;6.30;99.90
13976;DHT22;7062;49.792;9.946;2022-11-20T13:31:45;6.30;99.90
13976;DHT22;7062;49.792;9.946;2022-11-20T13:34:20;6.30;99.90
13976;DHT22;7062;49.792;9.946;2022-11-20T13:36:56;6.30;99.90
13976;DHT22;7062;49.792;9.946;2022-11-20T13:39:31;6.30;99.90
13976;DHT22;7062;49.792;9.946;2022-11-20T13:41:59;6.30;99.90
13976;DHT22;7062;49.792;9.946;2022-11-20T13:44:42;6.40;99.90
13976;DHT22;7062;49.792;9.946;2022-11-20T13:47:28;6.70;99.90
13976;DHT22;7062;49.792;9.946;2022-11-20T13:49:55;7.10;99.90
13976;DHT22;7062;49.792;9.946;2022-11-20T14:01:25;7.40;99.90
13976;DHT22;7062;49.792;9.946;2022-11-20T14:03:52;7.40;99.90
13976;DHT22;7062;49.792;9.946;2022-11-20T14:06:30;7.30;99.90
13976;DHT22;7062;49.792;9.946;2022-11-20T14:08:59;7.10;99.90
13976;DHT22;7062;49.792;9.946;2022-11-20T14:11:27;7.10;99.90
13976;DHT22;7062;49.792;9.946;2022-11-20T14:16:24;7.00;99.90
13976;DHT22;7062;49.792;9.946;2022-11-20T14:18:50;7.00;99.90
13976;DHT22;7062;49.792;9.946;2022-11-20T14:21:28;6.80;99.90
13976;DHT22;7062;49.792;9.946;2022-11-20T14:24:09;6.80;99.90
13976;DHT22;7062;49.792;9.946;2022-11-20T14:26:38;6.60;99.90
13976;DHT22;7062;49.792;9.946;2022-11-20T14:29:21;6.70;99.90
13976;DHT22;7062;49.792;9.946;2022-11-20T14:31:52;6.90;99.90
13976;DHT22;7062;49.792;9.946;2022-11-20T14:34:24;7.10;99.90
13976;DHT22;7062;49.792;9.946;2022-11-20T14:36:57;7.00;99.90
13976;DHT22;7062;49.792;9.946;2022-11-20T14:39:37;6.90;99.90
13976;DHT22;7062;49.792;9.946;2022-11-20T14:42:31;6.90;99.90
13976;DHT22;7062;49.792;9.946;2022-11-20T14:44:59;7.00;99.90
13976;DHT22;7062;49.792;9.946;2022-11-20T14:47:27;7.10;99.90
13976;DHT22;7062;49.792;9.946;2022-11-20T14:49:55;7.10;99.90
13976;DHT22;7062;49.792;9.946;2022-11-20T14:52:25;7.10;99.90
13976;DHT22;7062;49.792;9.946;2022-11-20T14:54:57;7.00;99.90
13976;DHT22;7062;49.792;9.946;2022-11-20T15:00:27;6.60;99.90
13976;DHT22;7062;49.792;9.946;2022-11-20T15:02:53;6.60;99.90
13976;DHT22;7062;49.792;9.946;2022-11-20T15:05:22;6.40;99.90
13976;DHT22;7062;49.792;9.946;2022-11-20T15:07:51;6.50;99.90
13976;DHT22;7062;49.792;9.946;2022-11-20T15:10:23;6.60;99.90
13976;DHT22;7062;49.792;9.946;2022-11-20T15:13:00;6.60;99.90
13976;DHT22;7062;49.792;9.946;2022-11-20T15:18:01;6.80;99.90
13976;DHT22;7062;49.792;9.946;2022-11-20T15:20:31;6.80;99.90
13976;DHT22;7062;49.792;9.946;2022-11-20T15:22:57;6.70;99.90
13976;DHT22;7062;49.792;9.946;2022-11-20T15:25:23;6.70;99.90
13976;DHT22;7062;49.792;9.946;2022-11-20T15:27:53;6.50;99.90
13976;DHT22;7062;49.792;9.946;2022-11-20T15:30:20;6.50;99.90
13976;DHT22;7062;49.792;9.946;2022-11-20T15:32:46;6.60;99.90
13976;DHT22;7062;49.792;9.946;2022-11-20T15:35:13;6.60;99.90
13976;DHT22;7062;49.792;9.946;2022-11-20T15:37:40;6.70;99.90
13976;DHT22;7062;49.792;9.946;2022-11-20T15:40:06;6.80;99.90
13976;DHT22;7062;49.792;9.946;2022-11-20T15:42:33;6.80;99.90
13976;DHT22;7062;49.792;9.946;2022-11-20T15:44:58;6.70;99.90
13976;DHT22;7062;49.792;9.946;2022-11-20T15:47:31;6.80;99.90
13976;DHT22;7062;49.792;9.946;2022-11-20T15:49:57;6.70;99.90
13976;DHT22;7062;49.792;9.946;2022-11-20T15:52:23;6.60;99.90
13976;DHT22;7062;49.792;9.946;2022-11-20T15:54:49;6.60;99.90
13976;DHT22;7062;49.792;9.946;2022-11-20T15:57:14;6.70;99.90
13976;DHT22;7062;49.792;9.946;2022-11-20T15:59:40;6.70;99.90
13976;DHT22;7062;49.792;9.946;2022-11-20T16:02:14;6.60;99.90
13976;DHT22;7062;49.792;9.946;2022-11-20T16:04:40;6.60;99.90
13976;DHT22;7062;49.792;9.946;2022-11-20T16:07:07;6.60;99.90
13976;DHT22;7062;49.792;9.946;2022-11-20T16:09:32;6.60;99.90
13976;DHT22;7062;49.792;9.946;2022-11-20T16:11:58;6.60;99.90
13976;DHT22;7062;49.792;9.946;2022-11-20T16:14:26;6.50;99.90
13976;DHT22;7062;49.792;9.946;2022-11-20T16:17:10;6.50;99.90
13976;DHT22;7062;49.792;9.946;2022-11-20T16:19:36;6.70;99.90
13976;DHT22;7062;49.792;9.946;2022-11-20T16:22:02;6.60;99.90
13976;DHT22;7062;49.792;9.946;2022-11-20T16:24:28;6.70;99.90
13976;DHT22;7062;49.792;9.946;2022-11-20T16:26:54;6.90;99.90
13976;DHT22;7062;49.792;9.946;2022-11-20T16:29:20;6.80;99.90
13976;DHT22;7062;49.792;9.946;2022-11-20T16:31:46;6.80;99.90
13976;DHT22;7062;49.792;9.946;2022-11-20T16:34:12;6.60;99.90
13976;DHT22;7062;49.792;9.946;2022-11-20T16:36:41;6.50;99.90
13976;DHT22;7062;49.792;9.946;2022-11-20T16:39:08;6.50;99.90
13976;DHT22;7062;49.792;9.946;2022-11-20T16:41:34;6.30;99.90
13976;DHT22;7062;49.792;9.946;2022-11-20T16:44:02;6.40;99.90
13976;DHT22;7062;49.792;9.946;2022-11-20T16:46:30;6.30;99.90
13976;DHT22;7062;49.792;9.946;2022-11-20T16:49:01;6.40;99.90
13976;DHT22;7062;49.792;9.946;2022-11-20T16:51:29;6.50;99.90
13976;DHT22;7062;49.792;9.946;2022-11-20T16:53:55;6.50;99.90
13976;DHT22;7062;49.792;9.946;2022-11-20T16:56:24;6.50;99.90
13976;DHT22;7062;49.792;9.946;2022-11-20T16:58:50;6.50;99.90
13976;DHT22;7062;49.792;9.946;2022-11-20T17:01:19;6.50;99.90
13976;DHT22;7062;49.792;9.946;2022-11-20T17:03:52;6.50;99.90
13976;DHT22;7062;49.792;9.946;2022-11-20T17:06:20;6.50;99.90
13976;DHT22;7062;49.792;9.946;2022-11-20T17:08:47;6.50;99.90
13976;DHT22;7062;49.792;9.946;2022-11-20T17:11:17;6.40;99.90
13976;DHT22;7062;49.792;9.946;2022-11-20T17:13:43;6.30;99.90
13976;DHT22;7062;49.792;9.946;2022-11-20T17:16:11;6.20;99.90
13976;DHT22;7062;49.792;9.946;2022-11-20T17:18:38;6.30;99.90
13976;DHT22;7062;49.792;9.946;2022-11-20T17:21:04;6.40;99.90
13976;DHT22;7062;49.792;9.946;2022-11-20T17:23:34;6.40;99.90
13976;DHT22;7062;49.792;9.946;2022-11-20T17:26:22;6.40;99.90
13976;DHT22;7062;49.792;9.946;2022-11-20T17:28:59;6.20;99.90
13976;DHT22;7062;49.792;9.946;2022-11-20T17:31:26;6.10;99.90
13976;DHT22;7062;49.792;9.946;2022-11-20T17:33:52;6.10;99.90
13976;DHT22;7062;49.792;9.946;2022-11-20T17:36:19;6.00;99.90
13976;DHT22;7062;49.792;9.946;2022-11-20T17:38:45;6.10;99.90
13976;DHT22;7062;49.792;9.946;2022-11-20T17:43:38;6.20;99.90
13976;DHT22;7062;49.792;9.946;2022-11-20T17:46:25;6.20;99.90